Time;durP1;ratioP1;P1;durP2;ratioP2;P2;SDS_P1;SDS_P2;PMS_P1;PMS_P2;Temp;Humidity;BMP_temperature;BMP_pressure;BME280_temperature;BME280_humidity;BME280_pressure;Samples;Min_cycle;Max_cycle;Signal;HPM_P1;HPM_P2
2023/03/26 00:01:20;;;;;;;13.23;4.68;;;;;;;;;;5016427;28;20207;-67
2023/03/26 00:03:52;;;;;;;23.00;5.22;;;;;;;;;;5019505;28;20194;-67
2023/03/26 00:06:20;;;;;;;18.75;5.38;;;;;;;;;;5022264;28;20225;-67
2023/03/26 00:08:46;;;;;;;22.35;5.35;;;;;;;;;;5017757;28;20210;-67
2023/03/26 00:11:14;;;;;;;17.50;5.65;;;;;;;;;;5025467;28;20532;-68
2023/03/26 00:13:42;;;;;;;22.02;5.20;;;;;;;;;;5018905;28;20179;-67
2023/03/26 00:16:09;;;;;;;15.95;5.47;;;;;;;;;;5027383;28;20208;-67
2023/03/26 00:18:36;;;;;;;21.17;5.18;;;;;;;;;;5028209;28;20198;-67
2023/03/26 00:21:04;;;;;;;17.75;5.30;;;;;;;;;;5030360;28;20178;-67
2023/03/26 00:23:31;;;;;;;21.05;5.60;;;;;;;;;;5030743;28;20182;-67
2023/03/26 00:25:57;;;;;;;16.13;5.45;;;;;;;;;;5030495;28;20229;-67
2023/03/26 00:28:25;;;;;;;19.13;5.22;;;;;;;;;;5024536;28;20606;-67
2023/03/26 00:31:00;;;;;;;19.88;5.53;;;;;;;;;;5029775;28;20534;-67
2023/03/26 00:33:27;;;;;;;14.45;5.38;;;;;;;;;;5027112;28;20197;-66
2023/03/26 00:35:57;;;;;;;18.98;6.10;;;;;;;;;;5015642;28;20741;-67
2023/03/26 00:38:24;;;;;;;23.50;6.15;;;;;;;;;;5022716;28;20190;-67
2023/03/26 00:40:51;;;;;;;15.18;5.55;;;;;;;;;;5009003;28;20246;-67
2023/03/26 00:43:17;;;;;;;24.33;5.90;;;;;;;;;;5014932;28;20183;-67
2023/03/26 00:45:45;;;;;;;19.23;5.47;;;;;;;;;;5024671;28;20218;-66
2023/03/26 00:48:11;;;;;;;21.25;5.47;;;;;;;;;;5020956;28;20182;-67
2023/03/26 00:50:37;;;;;;;19.52;5.82;;;;;;;;;;5024330;28;20575;-67
2023/03/26 00:53:02;;;;;;;22.38;6.95;;;;;;;;;;5029128;28;20273;-67
2023/03/26 00:55:28;;;;;;;21.48;5.90;;;;;;;;;;5012900;28;20591;-67
2023/03/26 00:57:54;;;;;;;20.77;6.07;;;;;;;;;;5021225;28;20253;-67
2023/03/26 01:00:28;;;;;;;21.17;5.40;;;;;;;;;;5016713;28;20210;-67
2023/03/26 01:02:54;;;;;;;22.42;6.07;;;;;;;;;;5025367;28;20190;-67
2023/03/26 01:05:34;;;;;;;20.42;6.40;;;;;;;;;;5026483;28;20194;-67
2023/03/26 01:08:13;;;;;;;20.88;5.95;;;;;;;;;;5027954;28;20380;-67
2023/03/26 01:10:40;;;;;;;16.00;4.80;;;;;;;;;;5018348;28;20282;-67
2023/03/26 01:13:05;;;;;;;20.58;5.78;;;;;;;;;;5025947;28;20194;-67
2023/03/26 01:15:30;;;;;;;17.60;5.50;;;;;;;;;;5023718;28;20278;-68
2023/03/26 01:17:56;;;;;;;22.20;5.75;;;;;;;;;;5010054;28;20232;-67
2023/03/26 01:20:29;;;;;;;18.02;5.60;;;;;;;;;;5025669;28;20555;-67
2023/03/26 01:23:04;;;;;;;17.08;5.38;;;;;;;;;;5021471;28;20218;-67
2023/03/26 01:25:36;;;;;;;19.35;6.18;;;;;;;;;;5016297;28;20268;-67
2023/03/26 01:28:04;;;;;;;22.98;6.18;;;;;;;;;;5028093;28;20301;-67
2023/03/26 01:30:57;;;;;;;23.90;6.43;;;;;;;;;;5012296;28;20216;-67
2023/03/26 01:33:39;;;;;;;29.50;7.13;;;;;;;;;;5013192;28;20277;-67
2023/03/26 01:36:16;;;;;;;21.73;5.88;;;;;;;;;;5012928;28;20189;-67
2023/03/26 01:38:47;;;;;;;19.63;7.25;;;;;;;;;;5020039;28;20201;-67
2023/03/26 01:41:23;;;;;;;23.90;7.18;;;;;;;;;;5014604;28;20198;-67
2023/03/26 01:44:07;;;;;;;18.30;6.18;;;;;;;;;;5029144;28;20182;-67
2023/03/26 01:46:35;;;;;;;25.55;6.15;;;;;;;;;;5026669;28;20692;-68
2023/03/26 01:49:02;;;;;;;24.50;6.63;;;;;;;;;;5027837;28;20206;-67
2023/03/26 01:51:30;;;;;;;25.98;7.22;;;;;;;;;;5029171;28;20235;-67
2023/03/26 01:53:57;;;;;;;24.58;7.35;;;;;;;;;;5025863;28;20201;-67
2023/03/26 01:56:25;;;;;;;22.02;7.20;;;;;;;;;;5027909;28;20205;-67
2023/03/26 01:59:20;;;;;;;21.38;6.53;;;;;;;;;;5026385;28;20236;-68
2023/03/26 02:02:04;;;;;;;22.70;6.28;;;;;;;;;;5016078;28;20221;-67
2023/03/26 02:04:39;;;;;;;30.90;7.32;;;;;;;;;;5017993;28;20183;-67
2023/03/26 02:07:11;;;;;;;20.58;6.68;;;;;;;;;;5013251;28;20649;-66
2023/03/26 02:09:44;;;;;;;22.48;6.75;;;;;;;;;;5019240;28;20226;-67
2023/03/26 02:12:11;;;;;;;32.65;7.32;;;;;;;;;;5022303;28;20179;-67
2023/03/26 02:14:37;;;;;;;26.35;7.28;;;;;;;;;;5027980;28;20205;-67
2023/03/26 02:17:02;;;;;;;15.30;6.55;;;;;;;;;;5039601;28;20580;-67
2023/03/26 02:19:28;;;;;;;21.92;6.35;;;;;;;;;;5027415;28;20361;-67
2023/03/26 02:21:58;;;;;;;19.88;6.82;;;;;;;;;;5022518;28;20212;-67
2023/03/26 02:24:24;;;;;;;21.80;6.90;;;;;;;;;;5026266;28;20213;-67
2023/03/26 02:26:50;;;;;;;23.27;7.20;;;;;;;;;;5028548;28;20194;-67
2023/03/26 02:29:19;;;;;;;25.10;8.02;;;;;;;;;;5026002;28;20697;-67
2023/03/26 02:31:47;;;;;;;31.65;7.55;;;;;;;;;;5025804;28;20237;-67
2023/03/26 02:34:13;;;;;;;29.15;7.70;;;;;;;;;;5021593;28;20179;-67
2023/03/26 02:36:41;;;;;;;29.83;8.13;;;;;;;;;;5020847;28;20701;-67
2023/03/26 02:39:10;;;;;;;33.05;7.15;;;;;;;;;;5027302;28;20186;-67
2023/03/26 02:41:37;;;;;;;21.55;7.35;;;;;;;;;;5027084;28;20197;-67
2023/03/26 02:44:04;;;;;;;17.10;6.22;;;;;;;;;;5025311;28;20188;-68
2023/03/26 02:46:31;;;;;;;26.30;8.05;;;;;;;;;;5013561;28;20189;-67
2023/03/26 02:48:57;;;;;;;29.05;7.25;;;;;;;;;;5026179;28;20256;-67
2023/03/26 02:51:24;;;;;;;22.85;7.38;;;;;;;;;;5022843;28;20268;-67
2023/03/26 02:53:50;;;;;;;21.55;7.72;;;;;;;;;;5030127;28;20281;-67
2023/03/26 02:56:15;;;;;;;31.05;8.88;;;;;;;;;;5022293;28;20197;-67
2023/03/26 02:58:41;;;;;;;26.10;9.05;;;;;;;;;;5025241;28;20182;-68
2023/03/26 03:01:06;;;;;;;22.77;8.05;;;;;;;;;;5026154;28;20289;-67
2023/03/26 03:03:33;;;;;;;33.83;9.40;;;;;;;;;;5027561;28;20197;-67
2023/03/26 03:05:58;;;;;;;25.33;9.38;;;;;;;;;;5013107;28;20505;-68
2023/03/26 03:08:26;;;;;;;28.73;8.80;;;;;;;;;;5014170;28;20686;-67
2023/03/26 03:11:01;;;;;;;31.13;9.20;;;;;;;;;;5029128;28;20201;-67
2023/03/26 03:13:27;;;;;;;29.40;9.45;;;;;;;;;;5027245;28;20265;-67
2023/03/26 03:15:53;;;;;;;33.22;9.23;;;;;;;;;;5021777;28;20269;-67
2023/03/26 03:18:19;;;;;;;26.70;9.10;;;;;;;;;;5030088;28;20650;-67
2023/03/26 03:20:45;;;;;;;28.25;8.90;;;;;;;;;;5032041;28;20186;-67
2023/03/26 03:23:11;;;;;;;28.50;9.13;;;;;;;;;;5029024;28;20283;-67
2023/03/26 03:25:42;;;;;;;21.52;8.65;;;;;;;;;;5026552;28;20249;-67
2023/03/26 03:28:08;;;;;;;26.35;9.48;;;;;;;;;;5022227;28;20230;-67
2023/03/26 03:30:34;;;;;;;34.22;10.98;;;;;;;;;;5028263;28;20228;-67
2023/03/26 03:33:01;;;;;;;38.63;12.20;;;;;;;;;;5018067;28;20190;-67
2023/03/26 03:35:28;;;;;;;31.95;11.43;;;;;;;;;;5018752;28;20190;-67
2023/03/26 03:37:57;;;;;;;36.83;12.18;;;;;;;;;;5026369;28;20195;-67
2023/03/26 03:40:22;;;;;;;34.03;12.43;;;;;;;;;;5029104;28;20179;-68
2023/03/26 03:42:48;;;;;;;34.22;11.65;;;;;;;;;;5021928;28;20664;-68
2023/03/26 03:45:13;;;;;;;35.20;12.65;;;;;;;;;;5021564;28;20206;-67
2023/03/26 03:47:39;;;;;;;36.27;13.20;;;;;;;;;;5023766;28;20281;-68
2023/03/26 03:50:05;;;;;;;38.95;13.43;;;;;;;;;;5013690;28;20225;-67
2023/03/26 03:52:31;;;;;;;32.55;12.43;;;;;;;;;;5027775;28;20192;-67
2023/03/26 03:54:59;;;;;;;36.10;12.35;;;;;;;;;;5028798;28;20186;-68
2023/03/26 03:57:25;;;;;;;32.72;11.38;;;;;;;;;;5031177;28;20759;-67
2023/03/26 03:59:50;;;;;;;30.25;10.48;;;;;;;;;;5030441;28;20721;-67
2023/03/26 04:02:24;;;;;;;32.88;11.30;;;;;;;;;;5021379;28;20265;-67
2023/03/26 04:04:51;;;;;;;30.90;12.10;;;;;;;;;;5028910;28;20226;-67
2023/03/26 04:07:17;;;;;;;31.70;11.65;;;;;;;;;;5017384;28;20237;-68
2023/03/26 04:09:42;;;;;;;30.98;10.93;;;;;;;;;;5019872;28;20203;-67
2023/03/26 04:12:07;;;;;;;29.63;11.95;;;;;;;;;;5015955;28;20202;-67
2023/03/26 04:14:33;;;;;;;43.55;14.32;;;;;;;;;;5028568;28;20240;-67
2023/03/26 04:16:59;;;;;;;44.78;12.85;;;;;;;;;;5031495;28;20546;-67
2023/03/26 04:19:26;;;;;;;27.25;11.85;;;;;;;;;;5024991;28;20896;-67
2023/03/26 04:21:51;;;;;;;35.08;12.52;;;;;;;;;;5019577;28;20293;-68
2023/03/26 04:24:16;;;;;;;36.42;12.27;;;;;;;;;;5027761;28;20328;-68
2023/03/26 04:26:42;;;;;;;32.22;11.50;;;;;;;;;;5012090;28;20587;-68
2023/03/26 04:29:11;;;;;;;31.17;11.18;;;;;;;;;;5028849;28;20222;-68
2023/03/26 04:31:37;;;;;;;32.65;12.02;;;;;;;;;;5029008;28;20190;-68
2023/03/26 04:34:13;;;;;;;37.75;11.35;;;;;;;;;;5024357;28;20182;-67
2023/03/26 04:36:41;;;;;;;33.38;12.07;;;;;;;;;;5040186;28;20246;-67
2023/03/26 04:39:11;;;;;;;34.20;11.73;;;;;;;;;;5024502;28;20186;-68
2023/03/26 04:41:37;;;;;;;32.83;11.88;;;;;;;;;;5026896;28;20244;-68
2023/03/26 04:44:03;;;;;;;37.80;12.13;;;;;;;;;;5017451;28;20190;-67
2023/03/26 04:46:32;;;;;;;33.85;11.70;;;;;;;;;;5028486;28;20264;-68
2023/03/26 04:48:57;;;;;;;32.35;12.23;;;;;;;;;;5027760;28;20206;-67
2023/03/26 04:51:25;;;;;;;31.90;12.55;;;;;;;;;;5019232;28;20191;-68
2023/03/26 04:53:57;;;;;;;34.47;12.38;;;;;;;;;;5015088;28;20218;-68
2023/03/26 04:56:36;;;;;;;29.23;11.02;;;;;;;;;;5028850;28;20259;-67
2023/03/26 04:59:02;;;;;;;25.23;10.98;;;;;;;;;;5023049;28;20190;-67
2023/03/26 05:01:29;;;;;;;28.35;11.85;;;;;;;;;;5029391;28;20209;-67
2023/03/26 05:03:55;;;;;;;33.70;11.80;;;;;;;;;;5016171;28;20195;-67
2023/03/26 05:06:21;;;;;;;30.05;11.25;;;;;;;;;;5017035;28;20186;-67
2023/03/26 05:08:46;;;;;;;29.15;11.38;;;;;;;;;;5012729;28;20202;-67
2023/03/26 05:11:12;;;;;;;33.30;11.63;;;;;;;;;;5017743;28;20183;-67
2023/03/26 05:13:37;;;;;;;31.77;12.07;;;;;;;;;;5021720;28;20215;-67
2023/03/26 05:16:03;;;;;;;36.73;12.50;;;;;;;;;;5020951;28;20701;-67
2023/03/26 05:18:31;;;;;;;24.13;11.68;;;;;;;;;;5025837;28;20202;-67
2023/03/26 05:20:56;;;;;;;33.20;12.10;;;;;;;;;;5025351;28;20278;-67
2023/03/26 05:23:22;;;;;;;32.28;12.73;;;;;;;;;;5026086;28;20706;-67
2023/03/26 05:25:47;;;;;;;28.17;12.48;;;;;;;;;;5022404;28;20190;-68
2023/03/26 05:28:13;;;;;;;27.23;11.95;;;;;;;;;;5026124;28;20585;-67
2023/03/26 05:30:39;;;;;;;41.72;13.52;;;;;;;;;;5023442;28;20268;-67
2023/03/26 05:33:05;;;;;;;40.17;12.82;;;;;;;;;;5027215;28;20186;-67
2023/03/26 05:35:30;;;;;;;33.33;13.00;;;;;;;;;;5023181;28;20182;-67
2023/03/26 05:37:56;;;;;;;31.77;11.43;;;;;;;;;;5026922;28;20264;-67
2023/03/26 05:40:21;;;;;;;34.83;13.05;;;;;;;;;;5024722;28;20182;-67
2023/03/26 05:42:47;;;;;;;28.30;11.40;;;;;;;;;;5022568;28;20186;-67
2023/03/26 05:45:13;;;;;;;28.60;12.10;;;;;;;;;;5021731;28;20285;-67
2023/03/26 05:47:39;;;;;;;44.63;12.60;;;;;;;;;;5014934;28;20189;-67
2023/03/26 05:50:05;;;;;;;35.55;13.15;;;;;;;;;;5018425;28;20190;-67
2023/03/26 05:52:31;;;;;;;46.25;13.07;;;;;;;;;;5021231;28;20182;-68
2023/03/26 05:54:56;;;;;;;33.55;12.43;;;;;;;;;;5021106;28;20201;-67
2023/03/26 05:57:22;;;;;;;39.95;12.68;;;;;;;;;;5024177;28;20591;-67
2023/03/26 05:59:48;;;;;;;32.05;12.75;;;;;;;;;;5024333;28;20177;-67
2023/03/26 06:02:14;;;;;;;32.85;12.38;;;;;;;;;;5019239;28;20592;-67
2023/03/26 06:04:41;;;;;;;38.95;13.63;;;;;;;;;;5024590;28;20569;-67
2023/03/26 06:07:10;;;;;;;41.72;13.27;;;;;;;;;;5017859;28;20619;-67
2023/03/26 06:09:39;;;;;;;42.60;13.45;;;;;;;;;;5013278;28;20704;-68
2023/03/26 06:12:05;;;;;;;41.83;13.82;;;;;;;;;;5014301;28;20225;-67
2023/03/26 06:14:31;;;;;;;37.63;13.07;;;;;;;;;;5023819;28;20612;-67
2023/03/26 06:16:56;;;;;;;40.53;13.73;;;;;;;;;;5010444;28;20282;-68
2023/03/26 06:19:22;;;;;;;37.58;12.85;;;;;;;;;;5019179;28;20197;-67
2023/03/26 06:21:47;;;;;;;38.83;12.98;;;;;;;;;;5013903;28;20187;-68
2023/03/26 06:24:12;;;;;;;32.70;13.02;;;;;;;;;;5012735;28;20545;-67
2023/03/26 06:26:38;;;;;;;33.20;12.55;;;;;;;;;;5016859;28;20186;-68
2023/03/26 06:29:04;;;;;;;35.55;12.55;;;;;;;;;;5023947;28;20297;-67
2023/03/26 06:31:29;;;;;;;44.85;12.80;;;;;;;;;;5022472;28;20225;-68
2023/03/26 06:33:55;;;;;;;44.28;13.00;;;;;;;;;;5018353;28;20261;-68
2023/03/26 06:36:20;;;;;;;37.80;12.88;;;;;;;;;;5016295;28;20713;-68
2023/03/26 06:38:45;;;;;;;35.10;12.10;;;;;;;;;;5012695;28;20530;-68
2023/03/26 06:41:11;;;;;;;36.15;12.77;;;;;;;;;;5015075;28;20728;-68
2023/03/26 06:43:37;;;;;;;39.60;12.43;;;;;;;;;;5027946;28;20204;-67
2023/03/26 06:46:04;;;;;;;33.30;12.00;;;;;;;;;;5020801;28;20645;-68
2023/03/26 06:48:30;;;;;;;38.42;12.80;;;;;;;;;;5022453;28;20186;-69
2023/03/26 06:50:56;;;;;;;45.03;12.68;;;;;;;;;;5026872;28;20233;-68
2023/03/26 06:53:21;;;;;;;36.90;12.93;;;;;;;;;;5017060;28;20265;-68
2023/03/26 06:55:47;;;;;;;35.20;13.98;;;;;;;;;;5018770;28;20187;-68
2023/03/26 06:58:12;;;;;;;44.72;13.40;;;;;;;;;;5024530;28;20607;-68
2023/03/26 07:00:38;;;;;;;42.65;13.38;;;;;;;;;;5035297;28;20207;-68
2023/03/26 07:03:04;;;;;;;38.78;13.82;;;;;;;;;;5018034;28;20178;-68
2023/03/26 07:05:30;;;;;;;36.72;13.48;;;;;;;;;;5035373;28;20404;-69
2023/03/26 07:07:56;;;;;;;31.92;12.43;;;;;;;;;;5017409;28;20605;-68
2023/03/26 07:10:22;;;;;;;38.13;12.85;;;;;;;;;;5023723;28;20228;-69
2023/03/26 07:12:47;;;;;;;29.73;12.32;;;;;;;;;;5014137;28;20685;-68
2023/03/26 07:15:13;;;;;;;32.78;12.07;;;;;;;;;;5023496;28;20193;-68
2023/03/26 07:17:38;;;;;;;39.60;13.75;;;;;;;;;;5022878;28;20186;-67
2023/03/26 07:20:06;;;;;;;32.22;11.80;;;;;;;;;;5016672;28;20237;-67
2023/03/26 07:22:31;;;;;;;28.55;12.15;;;;;;;;;;5021686;28;20178;-67
2023/03/26 07:24:57;;;;;;;25.65;9.80;;;;;;;;;;5017586;28;20681;-67
2023/03/26 07:27:41;;;;;;;25.98;10.50;;;;;;;;;;5018793;28;20580;-68
2023/03/26 07:31:04;;;;;;;25.50;9.13;;;;;;;;;;5023592;28;20260;-67
2023/03/26 07:33:56;;;;;;;28.13;8.10;;;;;;;;;;4996025;28;20221;-68
2023/03/26 07:36:48;;;;;;;21.85;8.05;;;;;;;;;;5028885;28;20560;-67
2023/03/26 07:39:33;;;;;;;18.90;7.45;;;;;;;;;;5025462;28;20347;-68
2023/03/26 07:42:10;;;;;;;25.80;7.35;;;;;;;;;;5015576;28;20244;-68
2023/03/26 07:44:46;;;;;;;21.80;6.47;;;;;;;;;;5021086;28;20197;-68
2023/03/26 07:47:41;;;;;;;22.88;7.05;;;;;;;;;;5030392;28;20667;-68
2023/03/26 07:50:12;;;;;;;21.42;8.00;;;;;;;;;;5023845;28;20209;-68
2023/03/26 07:52:37;;;;;;;19.15;6.00;;;;;;;;;;5029128;28;20440;-67
2023/03/26 07:55:03;;;;;;;11.63;5.63;;;;;;;;;;5023532;28;20541;-67
2023/03/26 07:57:52;;;;;;;18.83;5.40;;;;;;;;;;5030747;28;20244;-68
2023/03/26 08:00:27;;;;;;;13.55;5.57;;;;;;;;;;5022912;28;20252;-68
2023/03/26 08:03:19;;;;;;;17.42;6.28;;;;;;;;;;5029962;28;20198;-68
2023/03/26 08:05:49;;;;;;;17.33;6.10;;;;;;;;;;5020265;28;20187;-68
2023/03/26 08:08:21;;;;;;;20.10;7.03;;;;;;;;;;5013333;28;20197;-68
2023/03/26 08:11:16;;;;;;;15.93;6.38;;;;;;;;;;5022598;28;20210;-68
2023/03/26 08:13:48;;;;;;;16.77;6.43;;;;;;;;;;5012135;28;20179;-68
2023/03/26 08:16:22;;;;;;;19.60;6.75;;;;;;;;;;5019444;28;20591;-68
2023/03/26 08:19:20;;;;;;;19.33;6.32;;;;;;;;;;5016883;28;20194;-68
2023/03/26 08:21:54;;;;;;;13.40;5.18;;;;;;;;;;5015520;28;20179;-68
2023/03/26 08:24:39;;;;;;;15.65;4.82;;;;;;;;;;5017938;28;20194;-68
2023/03/26 08:27:30;;;;;;;12.68;4.93;;;;;;;;;;5013580;28;20509;-68
2023/03/26 08:30:22;;;;;;;12.30;4.32;;;;;;;;;;5020199;28;20660;-68
2023/03/26 08:32:55;;;;;;;12.88;3.70;;;;;;;;;;5010996;28;20182;-68
2023/03/26 08:35:21;;;;;;;10.73;4.22;;;;;;;;;;5015381;28;20205;-68
2023/03/26 08:37:46;;;;;;;13.20;3.83;;;;;;;;;;5016452;28;20186;-68
2023/03/26 08:40:25;;;;;;;14.32;4.00;;;;;;;;;;5023758;28;20202;-68
2023/03/26 08:43:08;;;;;;;15.23;4.10;;;;;;;;;;5011763;28;20194;-68
2023/03/26 08:45:33;;;;;;;13.65;4.85;;;;;;;;;;5022063;28;20703;-68
2023/03/26 08:48:39;;;;;;;15.23;5.00;;;;;;;;;;5021611;28;20191;-68
2023/03/26 08:51:06;;;;;;;9.40;4.53;;;;;;;;;;4984825;28;20211;-68
2023/03/26 08:53:49;;;;;;;13.60;5.97;;;;;;;;;;5012501;28;20191;-68
2023/03/26 08:56:52;;;;;;;16.63;5.57;;;;;;;;;;5021010;28;20270;-68
2023/03/26 08:59:56;;;;;;;15.68;5.32;;;;;;;;;;5017611;28;20185;-68
2023/03/26 09:02:43;;;;;;;17.13;5.63;;;;;;;;;;5008048;28;20198;-68
2023/03/26 09:05:41;;;;;;;10.38;5.40;;;;;;;;;;5019752;28;20224;-68
2023/03/26 09:08:31;;;;;;;11.18;5.20;;;;;;;;;;5016097;28;20195;-68
2023/03/26 09:11:14;;;;;;;20.63;5.78;;;;;;;;;;5015588;28;20659;-68
2023/03/26 09:14:01;;;;;;;11.23;4.78;;;;;;;;;;5021802;28;20202;-68
2023/03/26 09:16:57;;;;;;;14.40;4.72;;;;;;;;;;5017341;28;20189;-68
2023/03/26 09:19:50;;;;;;;14.32;5.13;;;;;;;;;;5008115;28;20175;-68
2023/03/26 09:22:43;;;;;;;12.52;4.65;;;;;;;;;;5011909;28;20250;-68
2023/03/26 09:25:21;;;;;;;11.60;4.43;;;;;;;;;;5023965;28;20186;-68
2023/03/26 09:28:04;;;;;;;11.73;3.75;;;;;;;;;;5027079;28;20206;-68
2023/03/26 09:31:07;;;;;;;11.85;4.40;;;;;;;;;;5008949;28;20884;-68
2023/03/26 09:33:54;;;;;;;10.80;4.22;;;;;;;;;;5020227;28;20196;-68
2023/03/26 09:36:39;;;;;;;13.73;3.65;;;;;;;;;;5017943;28;20244;-68
2023/03/26 09:39:28;;;;;;;12.25;4.07;;;;;;;;;;5023696;28;20186;-68
2023/03/26 09:42:07;;;;;;;13.90;4.57;;;;;;;;;;5026475;28;20186;-68
2023/03/26 09:45:02;;;;;;;12.52;4.53;;;;;;;;;;5006536;28;20194;-68
2023/03/26 09:48:17;;;;;;;15.35;4.43;;;;;;;;;;5014529;28;20199;-68
2023/03/26 09:51:11;;;;;;;15.60;3.78;;;;;;;;;;5016398;28;20209;-68
2023/03/26 09:53:54;;;;;;;10.00;3.80;;;;;;;;;;5016598;28;20193;-68
2023/03/26 09:56:39;;;;;;;9.43;3.67;;;;;;;;;;5015686;28;20653;-68
2023/03/26 09:59:31;;;;;;;11.15;4.10;;;;;;;;;;5008702;28;20179;-68
2023/03/26 10:02:26;;;;;;;16.60;4.07;;;;;;;;;;5028729;28;20255;-68
2023/03/26 10:05:06;;;;;;;15.02;4.00;;;;;;;;;;5017289;28;20193;-68
2023/03/26 10:08:05;;;;;;;10.60;3.70;;;;;;;;;;5026799;28;20302;-68
2023/03/26 10:10:37;;;;;;;16.25;4.75;;;;;;;;;;5023891;28;20213;-68
2023/03/26 10:13:10;;;;;;;12.57;4.72;;;;;;;;;;5028317;28;20186;-68
2023/03/26 10:16:08;;;;;;;12.38;4.22;;;;;;;;;;5024372;28;20698;-68
2023/03/26 10:19:06;;;;;;;17.27;4.22;;;;;;;;;;5021188;28;20190;-68
2023/03/26 10:21:43;;;;;;;17.52;4.70;;;;;;;;;;5026939;28;20194;-68
2023/03/26 10:24:41;;;;;;;17.05;4.20;;;;;;;;;;5036347;28;20201;-68
2023/03/26 10:27:35;;;;;;;12.40;4.38;;;;;;;;;;5007555;28;20281;-68
2023/03/26 10:30:29;;;;;;;16.10;3.95;;;;;;;;;;5020590;28;20664;-68
2023/03/26 10:33:28;;;;;;;14.50;3.47;;;;;;;;;;5023049;28;20217;-69
2023/03/26 10:36:21;;;;;;;19.77;4.13;;;;;;;;;;5013596;28;20187;-69
2023/03/26 10:39:17;;;;;;;17.17;4.07;;;;;;;;;;5018743;28;20194;-68
2023/03/26 10:41:57;;;;;;;17.20;3.42;;;;;;;;;;5024650;28;20199;-68
2023/03/26 10:44:44;;;;;;;11.65;3.53;;;;;;;;;;5007715;28;20178;-69
2023/03/26 10:47:44;;;;;;;14.98;3.85;;;;;;;;;;5024985;28;20190;-68
2023/03/26 10:50:09;;;;;;;16.42;3.45;;;;;;;;;;5024417;28;20210;-67
2023/03/26 10:52:45;;;;;;;22.48;3.50;;;;;;;;;;5019969;28;20186;-67
2023/03/26 10:55:17;;;;;;;12.40;3.30;;;;;;;;;;5021636;28;20392;-67
2023/03/26 10:57:44;;;;;;;16.17;3.85;;;;;;;;;;5020604;28;20607;-66
2023/03/26 11:00:23;;;;;;;17.83;3.63;;;;;;;;;;5023929;28;20222;-66
2023/03/26 11:02:59;;;;;;;18.05;3.50;;;;;;;;;;5024293;28;20208;-67
2023/03/26 11:05:43;;;;;;;16.80;3.70;;;;;;;;;;5024045;28;20190;-67
2023/03/26 11:08:20;;;;;;;16.38;3.20;;;;;;;;;;5008166;28;20214;-67
2023/03/26 11:10:54;;;;;;;13.43;3.00;;;;;;;;;;5023900;28;20202;-67
2023/03/26 11:13:38;;;;;;;18.90;4.75;;;;;;;;;;5026812;28;20186;-67
2023/03/26 11:16:11;;;;;;;15.63;2.85;;;;;;;;;;5019626;28;20193;-68
2023/03/26 11:18:44;;;;;;;13.07;2.58;;;;;;;;;;5011394;28;20565;-67
2023/03/26 11:21:44;;;;;;;11.52;2.70;;;;;;;;;;5026211;28;20198;-67
2023/03/26 11:24:15;;;;;;;15.10;2.50;;;;;;;;;;5019577;28;20244;-67
2023/03/26 11:26:55;;;;;;;14.60;3.67;;;;;;;;;;5020422;28;20191;-67
2023/03/26 11:29:29;;;;;;;17.70;2.97;;;;;;;;;;5012037;28;20242;-68
2023/03/26 11:32:53;;;;;;;19.90;3.15;;;;;;;;;;5029098;28;20200;-67
2023/03/26 11:35:29;;;;;;;17.15;3.47;;;;;;;;;;5007591;28;20198;-68
2023/03/26 11:38:01;;;;;;;16.90;3.13;;;;;;;;;;5022360;28;20297;-66
2023/03/26 11:40:32;;;;;;;17.23;3.72;;;;;;;;;;5022756;28;20210;-67
2023/03/26 11:43:02;;;;;;;17.30;4.03;;;;;;;;;;5014240;28;20222;-67
2023/03/26 11:45:32;;;;;;;17.40;3.20;;;;;;;;;;5034368;28;20194;-67
2023/03/26 11:48:31;;;;;;;14.20;3.15;;;;;;;;;;5027992;28;20230;-67
2023/03/26 11:51:03;;;;;;;14.23;2.72;;;;;;;;;;5026788;28;20218;-66
2023/03/26 11:53:33;;;;;;;17.77;2.90;;;;;;;;;;5020623;28;20548;-68
2023/03/26 11:56:04;;;;;;;13.35;2.78;;;;;;;;;;5024968;28;20190;-68
2023/03/26 11:58:53;;;;;;;13.02;2.53;;;;;;;;;;5022939;28;20217;-68
2023/03/26 12:01:29;;;;;;;13.32;2.67;;;;;;;;;;5030005;28;20552;-67
2023/03/26 12:04:04;;;;;;;14.05;2.75;;;;;;;;;;5021815;28;20267;-67
2023/03/26 12:06:31;;;;;;;17.08;2.88;;;;;;;;;;5024862;28;20181;-67
2023/03/26 12:08:57;;;;;;;15.52;2.97;;;;;;;;;;5017086;28;20268;-67
2023/03/26 12:11:30;;;;;;;15.90;3.20;;;;;;;;;;5021710;28;20525;-66
2023/03/26 12:14:00;;;;;;;14.95;2.75;;;;;;;;;;5022990;28;20190;-66
2023/03/26 12:16:26;;;;;;;12.75;2.42;;;;;;;;;;5019516;28;20191;-67
2023/03/26 12:19:04;;;;;;;17.85;2.95;;;;;;;;;;5019097;28;20182;-67
2023/03/26 12:21:46;;;;;;;13.65;2.63;;;;;;;;;;5021307;28;20179;-67
2023/03/26 12:24:33;;;;;;;8.23;1.92;;;;;;;;;;5008110;28;20658;-67
2023/03/26 12:27:27;;;;;;;20.13;2.67;;;;;;;;;;5021414;28;20256;-67
2023/03/26 12:30:25;;;;;;;16.85;2.88;;;;;;;;;;5012899;28;20241;-70
2023/03/26 12:32:59;;;;;;;13.98;2.83;;;;;;;;;;5024503;28;20581;-67
2023/03/26 12:35:28;;;;;;;15.98;2.45;;;;;;;;;;5026275;28;20232;-67
2023/03/26 12:37:56;;;;;;;13.13;2.20;;;;;;;;;;5020458;28;20265;-67
2023/03/26 12:40:35;;;;;;;15.13;2.20;;;;;;;;;;5021834;28;20666;-67
2023/03/26 12:43:19;;;;;;;16.88;2.72;;;;;;;;;;5028871;28;20220;-67
2023/03/26 12:45:49;;;;;;;18.92;2.85;;;;;;;;;;5021687;28;20252;-67
2023/03/26 12:48:16;;;;;;;14.05;2.75;;;;;;;;;;5020983;28;20191;-67
2023/03/26 12:50:42;;;;;;;13.10;2.45;;;;;;;;;;5018836;28;20206;-67
2023/03/26 12:53:28;;;;;;;18.70;2.30;;;;;;;;;;5023569;28;20671;-67
2023/03/26 12:56:10;;;;;;;15.60;2.67;;;;;;;;;;5023141;28;20277;-67
2023/03/26 12:58:50;;;;;;;14.93;2.28;;;;;;;;;;5030696;28;20201;-67
2023/03/26 13:01:39;;;;;;;15.63;2.67;;;;;;;;;;5015919;28;20634;-67
2023/03/26 13:04:32;;;;;;;9.20;1.92;;;;;;;;;;5019596;28;20214;-68
2023/03/26 13:07:15;;;;;;;13.63;2.40;;;;;;;;;;5025768;28;20186;-69
2023/03/26 13:09:59;;;;;;;13.30;2.35;;;;;;;;;;5016367;28;20206;-67
2023/03/26 13:12:41;;;;;;;10.30;1.88;;;;;;;;;;5024359;28;20193;-73
2023/03/26 13:15:34;;;;;;;15.07;2.65;;;;;;;;;;5018499;28;20245;-69
2023/03/26 13:18:24;;;;;;;9.10;2.25;;;;;;;;;;5029204;28;20194;-67
2023/03/26 13:21:09;;;;;;;14.38;2.30;;;;;;;;;;5012869;28;20183;-69
2023/03/26 13:23:52;;;;;;;11.57;2.25;;;;;;;;;;5019020;28;20196;-69
2023/03/26 13:26:44;;;;;;;9.38;1.80;;;;;;;;;;5025183;28;20197;-74
2023/03/26 13:29:12;;;;;;;11.50;2.00;;;;;;;;;;5009110;28;20722;-70
2023/03/26 13:32:19;;;;;;;9.02;1.98;;;;;;;;;;5013528;28;20191;-70
2023/03/26 13:35:09;;;;;;;8.32;1.38;;;;;;;;;;5002911;28;20199;-72
2023/03/26 13:37:56;;;;;;;7.60;1.52;;;;;;;;;;5014070;28;20198;-69
2023/03/26 13:40:28;;;;;;;9.88;1.85;;;;;;;;;;5030320;28;20744;-69
2023/03/26 13:43:02;;;;;;;10.55;1.90;;;;;;;;;;5015579;28;20218;-68
2023/03/26 13:45:53;;;;;;;13.70;1.67;;;;;;;;;;5030104;28;20561;-70
2023/03/26 13:48:25;;;;;;;13.60;2.67;;;;;;;;;;5018687;28;20182;-69
2023/03/26 13:51:14;;;;;;;12.65;2.72;;;;;;;;;;5019157;28;20784;-68
2023/03/26 13:53:56;;;;;;;13.10;2.20;;;;;;;;;;5008532;28;20190;-69
2023/03/26 13:56:27;;;;;;;8.05;1.60;;;;;;;;;;5023161;28;20267;-68
2023/03/26 13:59:02;;;;;;;11.10;2.05;;;;;;;;;;5020006;28;20194;-68
2023/03/26 14:01:35;;;;;;;14.35;2.40;;;;;;;;;;5025187;28;20212;-68
2023/03/26 14:04:07;;;;;;;23.42;3.22;;;;;;;;;;5013352;28;20260;-69
2023/03/26 14:07:19;;;;;;;11.25;1.55;;;;;;;;;;5020121;28;20671;-69
2023/03/26 14:10:07;;;;;;;14.50;1.85;;;;;;;;;;5015369;28;20225;-68
2023/03/26 14:13:07;;;;;;;9.95;1.33;;;;;;;;;;5021358;28;20194;-70
2023/03/26 14:15:50;;;;;;;14.25;2.55;;;;;;;;;;5020443;28;20186;-69
2023/03/26 14:18:24;;;;;;;12.07;1.48;;;;;;;;;;5022674;28;20264;-68
2023/03/26 14:21:20;;;;;;;11.98;1.50;;;;;;;;;;5023559;28;20279;-68
2023/03/26 14:24:06;;;;;;;13.40;1.80;;;;;;;;;;5014748;28;20256;-68
2023/03/26 14:26:40;;;;;;;15.43;2.45;;;;;;;;;;5020468;28;20563;-68
2023/03/26 14:29:11;;;;;;;10.48;1.77;;;;;;;;;;5023721;28;20222;-68
2023/03/26 14:31:58;;;;;;;6.88;1.67;;;;;;;;;;5018822;28;20205;-67
2023/03/26 14:34:49;;;;;;;7.80;2.15;;;;;;;;;;5017242;28;20179;-71
2023/03/26 14:37:15;;;;;;;10.70;1.52;;;;;;;;;;5017175;28;20201;-68
2023/03/26 14:40:13;;;;;;;9.10;1.88;;;;;;;;;;5020909;28;20608;-68
2023/03/26 14:43:00;;;;;;;7.15;1.50;;;;;;;;;;5015026;28;20213;-68
2023/03/26 14:45:37;;;;;;;9.93;2.00;;;;;;;;;;5018582;28;20185;-68
2023/03/26 14:48:22;;;;;;;9.40;1.67;;;;;;;;;;5008276;28;20181;-68
2023/03/26 14:51:13;;;;;;;15.68;2.13;;;;;;;;;;5021083;28;20237;-69
2023/03/26 14:53:44;;;;;;;9.52;1.80;;;;;;;;;;5024925;28;20557;-69
2023/03/26 14:56:31;;;;;;;12.85;2.35;;;;;;;;;;5024812;28;20190;-68
2023/03/26 14:59:34;;;;;;;9.63;1.50;;;;;;;;;;5011717;28;20832;-69
2023/03/26 15:02:30;;;;;;;10.60;1.95;;;;;;;;;;5016826;28;20209;-69
2023/03/26 15:05:25;;;;;;;8.85;1.60;;;;;;;;;;5019997;28;20201;-67
2023/03/26 15:08:02;;;;;;;10.48;1.70;;;;;;;;;;5021257;28;20228;-67
2023/03/26 15:10:52;;;;;;;13.38;1.98;;;;;;;;;;5028402;28;20260;-69
2023/03/26 15:13:42;;;;;;;17.95;1.88;;;;;;;;;;5024651;28;20252;-67